createdAt,value
2022-12-03T00:00:59.671Z,36.76
2022-12-03T00:03:30.710Z,35.98
2022-12-03T00:05:59.044Z,35.67
2022-12-03T00:08:27.499Z,35.62
2022-12-03T00:10:55.769Z,35.40
2022-12-03T00:13:24.328Z,35.40
2022-12-03T00:15:52.605Z,35.78
2022-12-03T00:18:20.999Z,35.72
2022-12-03T00:20:50.650Z,35.71
2022-12-03T00:23:19.088Z,35.68
2022-12-03T00:25:47.458Z,35.88
2022-12-03T00:28:15.789Z,36.48
2022-12-03T00:30:44.009Z,36.13
2022-12-03T00:33:12.382Z,36.28
2022-12-03T00:35:40.540Z,35.59
2022-12-03T00:38:10.458Z,35.92
2022-12-03T00:40:38.801Z,36.10
2022-12-03T00:43:07.181Z,36.26
2022-12-03T00:45:35.284Z,36.51
2022-12-03T00:48:03.703Z,36.45
2022-12-03T00:50:31.887Z,36.45
2022-12-03T00:53:00.288Z,37.09
2022-12-03T00:55:29.735Z,36.63
2022-12-03T00:57:58.099Z,36.97
2022-12-03T01:00:26.442Z,36.81
2022-12-03T01:02:55.042Z,36.54
2022-12-03T01:05:23.459Z,36.40
2022-12-03T01:07:52.240Z,36.23
2022-12-03T01:10:20.618Z,35.81
2022-12-03T01:12:50.540Z,35.89
2022-12-03T01:15:19.162Z,35.71
2022-12-03T01:17:47.757Z,35.63
2022-12-03T01:20:15.927Z,35.55
2022-12-03T01:22:44.383Z,35.86
2022-12-03T01:25:12.443Z,36.13
2022-12-03T01:27:40.909Z,36.72
2022-12-03T01:30:13.688Z,36.24
2022-12-03T01:32:41.080Z,36.10
2022-12-03T01:35:09.788Z,35.52
2022-12-03T01:37:38.286Z,35.65
2022-12-03T01:40:08.509Z,35.75
2022-12-03T01:42:39.577Z,35.79
2022-12-03T01:45:13.047Z,35.12
2022-12-03T01:47:41.559Z,35.60
2022-12-03T01:50:16.364Z,35.24
2022-12-03T01:52:45.617Z,35.13
2022-12-03T01:55:15.686Z,35.82
2022-12-03T01:57:46.752Z,35.80
2022-12-03T02:00:18.297Z,35.78
2022-12-03T02:02:48.296Z,35.85
2022-12-03T02:05:19.352Z,36.18
2022-12-03T02:07:47.671Z,34.62
2022-12-03T02:10:17.824Z,35.95
2022-12-03T02:12:49.327Z,35.69
2022-12-03T02:15:18.791Z,34.11
2022-12-03T02:17:47.188Z,36.16
2022-12-03T02:20:15.512Z,35.60
2022-12-03T02:22:47.912Z,35.82
2022-12-03T02:25:19.799Z,35.07
2022-12-03T02:27:49.432Z,35.40
2022-12-03T02:30:19.522Z,35.28
2022-12-03T02:32:48.628Z,35.20
2022-12-03T02:35:18.724Z,35.13
2022-12-03T02:37:48.069Z,35.28
2022-12-03T02:40:21.030Z,34.69
2022-12-03T02:42:48.937Z,34.98
2022-12-03T02:45:20.794Z,34.91
2022-12-03T02:47:52.292Z,35.23
2022-12-03T02:50:23.527Z,34.86
2022-12-03T02:52:53.349Z,35.16
2022-12-03T02:55:23.365Z,34.89
2022-12-03T02:57:52.276Z,35.52
2022-12-03T03:00:23.119Z,35.90
2022-12-03T03:02:51.796Z,35.38
2022-12-03T03:05:22.248Z,35.05
2022-12-03T03:07:51.939Z,34.86
2022-12-03T03:10:24.237Z,35.06
2022-12-03T03:12:54.406Z,35.06
2022-12-03T03:15:23.459Z,34.70
2022-12-03T03:17:52.031Z,34.78
2022-12-03T03:20:20.527Z,34.69
2022-12-03T03:22:49.009Z,35.33
2022-12-03T03:25:19.076Z,34.89
2022-12-03T03:27:48.902Z,35.46
2022-12-03T03:30:17.503Z,36.36
2022-12-03T03:32:45.880Z,36.23
2022-12-03T03:35:14.952Z,36.36
2022-12-03T03:37:43.369Z,35.79
2022-12-03T03:40:12.329Z,36.59
2022-12-03T03:42:40.776Z,36.60
2022-12-03T03:45:11.127Z,36.61
2022-12-03T03:47:39.639Z,36.53
2022-12-03T03:50:09.829Z,36.33
2022-12-03T03:52:39.307Z,36.19
2022-12-03T03:55:08.541Z,36.33
2022-12-03T03:57:37.235Z,36.69
2022-12-03T04:00:06.922Z,36.56
2022-12-03T04:02:38.406Z,36.38
2022-12-03T04:05:07.417Z,35.81
2022-12-03T04:07:35.943Z,36.71
2022-12-03T04:10:24.810Z,36.47
2022-12-03T04:12:58.240Z,35.97
2022-12-03T04:15:26.763Z,35.71
2022-12-03T04:18:14.739Z,35.51
2022-12-03T04:20:43.331Z,35.61
2022-12-03T04:23:10.855Z,35.43
2022-12-03T04:25:56.623Z,35.52
2022-12-03T04:28:42.295Z,35.26
2022-12-03T04:31:24.602Z,35.34
2022-12-03T04:34:12.118Z,34.81
2022-12-03T04:36:40.535Z,34.91
2022-12-03T04:39:09.144Z,34.84
2022-12-03T04:41:37.423Z,35.70
2022-12-03T04:44:23.231Z,35.19
2022-12-03T04:46:51.458Z,35.38
2022-12-03T04:49:21.210Z,35.32
2022-12-03T04:51:49.395Z,35.12
2022-12-03T04:54:17.740Z,35.50
2022-12-03T04:56:45.916Z,35.37
2022-12-03T04:59:16.461Z,35.57
2022-12-03T05:01:46.287Z,35.09
2022-12-03T05:04:15.516Z,35.34
2022-12-03T05:06:45.303Z,36.37
2022-12-03T05:09:13.911Z,35.75
2022-12-03T05:11:42.805Z,36.05
2022-12-03T05:14:12.017Z,36.37
2022-12-03T05:16:40.442Z,36.53
2022-12-03T05:19:09.960Z,36.20
2022-12-03T05:21:38.033Z,37.19
2022-12-03T05:24:08.384Z,36.94
2022-12-03T05:26:36.577Z,37.27
2022-12-03T05:29:05.211Z,36.65
2022-12-03T05:31:33.357Z,36.52
2022-12-03T05:34:01.764Z,37.27
2022-12-03T05:36:29.861Z,37.72
2022-12-03T05:38:58.292Z,37.93
2022-12-03T05:41:44.986Z,37.19
2022-12-03T05:44:16.235Z,36.69
2022-12-03T05:46:48.493Z,36.49
2022-12-03T05:49:17.096Z,36.37
2022-12-03T05:51:45.156Z,37.03
2022-12-03T05:54:13.568Z,37.11
2022-12-03T05:56:43.153Z,36.85
2022-12-03T05:59:11.519Z,37.20
2022-12-03T06:01:39.695Z,36.82
2022-12-03T06:04:08.156Z,37.44
2022-12-03T06:06:36.352Z,37.63
2022-12-03T06:09:05.170Z,38.18
2022-12-03T06:11:34.999Z,37.67
2022-12-03T06:14:04.981Z,37.53
2022-12-03T06:16:33.312Z,37.91
2022-12-03T06:19:01.688Z,37.83
2022-12-03T06:21:29.911Z,37.68
2022-12-03T06:23:58.262Z,37.41
2022-12-03T06:26:26.545Z,38.21
2022-12-03T06:28:54.973Z,37.61
2022-12-03T06:31:24.764Z,38.18
2022-12-03T06:33:53.277Z,38.02
2022-12-03T06:36:23.292Z,37.88
2022-12-03T06:38:51.962Z,37.39
2022-12-03T06:41:20.053Z,37.08
2022-12-03T06:43:48.526Z,36.95
2022-12-03T06:46:16.841Z,37.23
2022-12-03T06:48:46.655Z,36.85
2022-12-03T06:51:14.674Z,36.82
2022-12-03T06:53:43.176Z,36.97
2022-12-03T06:56:11.351Z,36.55
2022-12-03T06:58:39.953Z,36.61
2022-12-03T07:01:08.082Z,36.39
2022-12-03T07:03:36.501Z,36.29
2022-12-03T07:06:06.273Z,36.52
2022-12-03T07:08:34.636Z,36.85
2022-12-03T07:11:02.851Z,37.17
2022-12-03T07:13:31.176Z,36.92
2022-12-03T07:15:59.591Z,36.90
2022-12-03T07:18:27.989Z,36.74
2022-12-03T07:20:56.178Z,36.41
2022-12-03T07:23:25.873Z,36.09
2022-12-03T07:25:53.972Z,36.35
2022-12-03T07:28:22.313Z,36.25
2022-12-03T07:30:50.460Z,36.19
2022-12-03T07:33:18.869Z,36.46
2022-12-03T07:35:46.892Z,36.54
2022-12-03T07:38:15.378Z,36.84
2022-12-03T07:40:45.212Z,36.66
2022-12-03T07:43:13.617Z,36.96
2022-12-03T07:45:41.866Z,37.03
2022-12-03T07:48:10.414Z,38.25
2022-12-03T07:50:38.539Z,38.21
2022-12-03T07:53:07.014Z,38.32
2022-12-03T07:55:35.180Z,38.77
2022-12-03T07:58:04.902Z,38.40
2022-12-03T08:00:32.998Z,39.13
2022-12-03T08:03:01.385Z,38.60
2022-12-03T08:05:29.929Z,38.21
2022-12-03T08:07:58.405Z,39.10
2022-12-03T08:10:27.188Z,39.15
2022-12-03T08:12:57.630Z,38.12
2022-12-03T08:15:32.366Z,37.26
2022-12-03T08:18:14.179Z,36.91
2022-12-03T08:20:43.936Z,37.07
2022-12-03T08:23:14.884Z,37.21
2022-12-03T08:25:43.738Z,37.48
2022-12-03T08:28:16.734Z,37.41
2022-12-03T08:30:48.819Z,37.33
2022-12-03T08:33:22.284Z,37.05
2022-12-03T08:35:52.075Z,37.14
2022-12-03T08:38:23.041Z,37.09
2022-12-03T08:40:52.955Z,36.73
2022-12-03T08:43:22.994Z,36.75
2022-12-03T08:45:52.851Z,36.90
2022-12-03T08:48:28.189Z,36.13
2022-12-03T08:50:57.849Z,36.65
2022-12-03T08:53:30.109Z,36.47
2022-12-03T08:56:00.394Z,36.78
2022-12-03T08:58:38.710Z,35.89
2022-12-03T09:01:30.390Z,36.11
2022-12-03T09:04:06.950Z,36.52
2022-12-03T09:06:35.032Z,37.49
2022-12-03T09:09:06.744Z,37.60
2022-12-03T09:11:35.226Z,37.54
2022-12-03T09:14:03.673Z,37.29
2022-12-03T09:16:33.726Z,36.80
2022-12-03T09:19:02.138Z,37.03
2022-12-03T09:21:30.225Z,36.56
2022-12-03T09:23:58.645Z,36.44
2022-12-03T09:26:27.260Z,36.59
2022-12-03T09:28:55.698Z,36.77
2022-12-03T09:31:24.118Z,37.17
2022-12-03T09:33:53.795Z,36.72
2022-12-03T09:36:22.189Z,36.83
2022-12-03T09:38:50.657Z,36.70
2022-12-03T09:41:18.833Z,35.95
2022-12-03T09:44:03.969Z,35.59
2022-12-03T09:46:33.116Z,35.47
2022-12-03T09:49:03.807Z,35.20
2022-12-03T09:51:34.385Z,35.16
2022-12-03T09:54:03.189Z,34.97
2022-12-03T09:56:31.357Z,34.95
2022-12-03T09:58:59.710Z,35.02
2022-12-03T10:01:30.286Z,34.95
2022-12-03T10:03:59.566Z,33.90
2022-12-03T10:06:30.505Z,35.37
2022-12-03T10:09:00.147Z,35.53
2022-12-03T10:11:28.772Z,34.73
2022-12-03T10:13:58.171Z,34.83
2022-12-03T10:16:26.587Z,35.07
2022-12-03T10:18:57.052Z,35.37
2022-12-03T10:21:31.314Z,35.32
2022-12-03T10:24:20.806Z,34.49
2022-12-03T10:26:52.029Z,35.83
2022-12-03T10:29:22.699Z,36.13
2022-12-03T10:31:59.023Z,35.51
2022-12-03T10:34:31.570Z,36.25
2022-12-03T10:37:11.595Z,35.98
2022-12-03T10:39:58.979Z,35.58
2022-12-03T10:42:28.181Z,36.54
2022-12-03T10:45:13.933Z,35.91
2022-12-03T10:47:42.347Z,36.54
2022-12-03T10:50:18.295Z,35.68
2022-12-03T10:52:46.941Z,36.38
2022-12-03T10:55:17.490Z,36.39
2022-12-03T10:57:46.402Z,36.45
2022-12-03T11:00:17.673Z,36.16
2022-12-03T11:02:46.782Z,36.56
2022-12-03T11:05:27.535Z,36.93
2022-12-03T11:07:55.821Z,36.75
2022-12-03T11:10:25.979Z,36.57
2022-12-03T11:13:28.760Z,35.71
2022-12-03T11:15:58.168Z,36.38
2022-12-03T11:18:58.902Z,35.56
2022-12-03T11:21:27.518Z,35.84
2022-12-03T11:24:20.748Z,34.74
2022-12-03T11:27:19.036Z,34.64
2022-12-03T11:29:54.990Z,35.71
2022-12-03T11:33:00.048Z,35.40
2022-12-03T11:35:29.140Z,36.05
2022-12-03T11:38:35.998Z,34.80
2022-12-03T11:41:11.505Z,34.84
2022-12-03T11:44:01.524Z,34.07
2022-12-03T11:46:31.165Z,35.72
2022-12-03T11:49:00.600Z,35.44
2022-12-03T11:51:29.870Z,36.12
2022-12-03T11:54:00.153Z,36.83
2022-12-03T11:56:29.518Z,37.28
2022-12-03T11:59:01.493Z,36.60
2022-12-03T12:01:38.828Z,35.90
2022-12-03T12:04:08.166Z,37.03
2022-12-03T12:06:42.665Z,36.83
2022-12-03T12:09:11.319Z,36.97
2022-12-03T12:11:41.555Z,37.51
2022-12-03T12:14:12.806Z,37.36
2022-12-03T12:16:51.474Z,36.84
2022-12-03T12:19:34.287Z,37.33
2022-12-03T12:22:17.746Z,37.95
2022-12-03T12:24:51.634Z,38.21
2022-12-03T12:27:21.935Z,38.85
2022-12-03T12:29:56.605Z,39.07
2022-12-03T12:32:27.568Z,40.07
2022-12-03T12:34:58.447Z,39.22
2022-12-03T12:37:33.009Z,39.03
2022-12-03T12:40:02.783Z,38.15
2022-12-03T12:42:35.699Z,37.55
2022-12-03T12:45:15.934Z,36.45
2022-12-03T12:47:50.980Z,37.00
2022-12-03T12:50:20.312Z,37.34
2022-12-03T12:52:51.280Z,36.84
2022-12-03T12:55:20.132Z,35.21
2022-12-03T12:57:48.273Z,36.43
2022-12-03T13:00:23.677Z,36.14
2022-12-03T13:02:53.323Z,36.74
2022-12-03T13:05:22.082Z,37.15
2022-12-03T13:07:50.554Z,36.85
2022-12-03T13:10:32.735Z,36.46
2022-12-03T13:13:02.570Z,37.13
2022-12-03T13:15:40.332Z,36.99
2022-12-03T13:18:23.222Z,37.44
2022-12-03T13:20:51.655Z,38.20
2022-12-03T13:23:35.181Z,36.67
2022-12-03T13:26:19.385Z,37.48
2022-12-03T13:28:55.244Z,37.73
2022-12-03T13:31:27.527Z,37.44
2022-12-03T13:33:56.794Z,37.98
2022-12-03T13:36:31.644Z,38.70
2022-12-03T13:38:59.782Z,37.97
2022-12-03T13:41:46.971Z,37.65
2022-12-03T13:44:17.735Z,37.84
2022-12-03T13:46:48.503Z,37.49
2022-12-03T13:49:20.299Z,38.21
2022-12-03T13:51:49.145Z,38.49
2022-12-03T13:54:21.675Z,38.59
2022-12-03T13:56:50.760Z,39.91
2022-12-03T13:59:24.421Z,39.62
2022-12-03T14:01:54.523Z,38.76
2022-12-03T14:04:22.658Z,39.12
2022-12-03T14:06:51.031Z,38.17
2022-12-03T14:09:19.195Z,38.66
2022-12-03T14:12:07.460Z,38.92
2022-12-03T14:14:35.488Z,39.43
2022-12-03T14:17:05.678Z,39.96
2022-12-03T14:19:33.792Z,38.89
2022-12-03T14:22:02.669Z,38.23
2022-12-03T14:24:30.674Z,38.40
2022-12-03T14:26:59.052Z,38.48
2022-12-03T14:29:27.320Z,38.01
2022-12-03T14:31:56.006Z,38.25
2022-12-03T14:34:25.624Z,38.52
2022-12-03T14:36:54.085Z,38.98
2022-12-03T14:39:22.451Z,39.29
2022-12-03T14:42:08.447Z,38.74
2022-12-03T14:44:36.649Z,38.96
2022-12-03T14:47:05.287Z,38.46
2022-12-03T14:49:35.189Z,38.09
2022-12-03T14:52:03.742Z,37.96
2022-12-03T14:54:33.147Z,38.89
2022-12-03T14:57:01.616Z,38.81
2022-12-03T14:59:29.886Z,38.41
2022-12-03T15:02:00.980Z,40.12
2022-12-03T15:04:29.311Z,39.40
2022-12-03T15:06:59.013Z,39.08
2022-12-03T15:09:27.346Z,39.14
2022-12-03T15:11:55.693Z,40.10
2022-12-03T15:14:23.853Z,39.61
2022-12-03T15:16:52.315Z,39.89
2022-12-03T15:19:20.443Z,40.59
2022-12-03T15:21:49.020Z,41.37
2022-12-03T15:24:18.469Z,42.13
2022-12-03T15:26:46.944Z,41.12
2022-12-03T15:29:15.014Z,41.18
2022-12-03T15:31:43.457Z,41.34
2022-12-03T15:34:11.522Z,40.59
2022-12-03T15:36:40.105Z,40.14
2022-12-03T15:39:08.132Z,40.09
2022-12-03T15:41:37.926Z,40.63
2022-12-03T15:44:06.120Z,40.78
2022-12-03T15:46:34.597Z,40.83
2022-12-03T15:49:02.665Z,40.17
2022-12-03T15:51:31.048Z,40.52
2022-12-03T15:53:59.183Z,40.49
2022-12-03T15:56:27.586Z,40.09
2022-12-03T15:58:57.183Z,41.59
2022-12-03T16:01:25.895Z,40.43
2022-12-03T16:03:54.005Z,41.38
2022-12-03T16:06:22.454Z,40.58
2022-12-03T16:08:50.500Z,40.90
2022-12-03T16:11:18.799Z,41.62
2022-12-03T16:13:46.903Z,41.73
2022-12-03T16:16:16.697Z,41.57
2022-12-03T16:18:44.887Z,41.07
2022-12-03T16:21:13.184Z,39.97
2022-12-03T16:23:41.772Z,40.85
2022-12-03T16:26:10.117Z,41.44
2022-12-03T16:28:38.171Z,41.11
2022-12-03T16:31:06.851Z,40.78
2022-12-03T16:33:36.475Z,40.51
2022-12-03T16:36:05.131Z,41.04
2022-12-03T16:38:33.792Z,41.84
2022-12-03T16:41:02.395Z,41.14
2022-12-03T16:43:30.565Z,41.26
2022-12-03T16:46:12.924Z,41.84
2022-12-03T16:48:42.401Z,41.52
2022-12-03T16:51:10.907Z,40.83
2022-12-03T16:53:39.551Z,40.80
2022-12-03T16:56:08.024Z,41.51
2022-12-03T16:58:36.176Z,40.87
2022-12-03T17:01:04.656Z,40.41
2022-12-03T17:03:34.200Z,41.27
2022-12-03T17:06:04.671Z,40.34
2022-12-03T17:08:32.935Z,40.26
2022-12-03T17:11:01.334Z,40.52
2022-12-03T17:13:29.442Z,41.58
2022-12-03T17:15:57.874Z,40.79
2022-12-03T17:18:27.117Z,41.41
2022-12-03T17:20:55.463Z,40.78
2022-12-03T17:23:25.000Z,41.92
2022-12-03T17:25:53.347Z,40.79
2022-12-03T17:28:21.406Z,41.22
2022-12-03T17:30:49.941Z,41.45
2022-12-03T17:33:18.116Z,40.75
2022-12-03T17:35:46.848Z,41.04
2022-12-03T17:38:15.022Z,41.70
2022-12-03T17:40:44.792Z,40.13
2022-12-03T17:43:12.868Z,40.44
2022-12-03T17:45:41.871Z,40.77
2022-12-03T17:48:10.180Z,40.48
2022-12-03T17:50:38.814Z,41.42
2022-12-03T17:53:10.337Z,40.99
2022-12-03T17:55:44.535Z,39.76
2022-12-03T17:58:14.947Z,39.65
2022-12-03T18:00:43.719Z,40.64
2022-12-03T18:03:11.853Z,40.31
2022-12-03T18:05:40.265Z,40.94
2022-12-03T18:08:08.489Z,39.71
2022-12-03T18:10:36.937Z,40.05
2022-12-03T18:13:05.081Z,39.77
2022-12-03T18:15:34.852Z,39.58
2022-12-03T18:18:02.960Z,39.08
2022-12-03T18:20:31.491Z,40.28
2022-12-03T18:23:00.306Z,40.73
2022-12-03T18:25:29.710Z,41.18
2022-12-03T18:27:58.195Z,40.89
2022-12-03T18:30:26.750Z,40.69
2022-12-03T18:32:56.457Z,39.92
2022-12-03T18:35:25.021Z,41.30
2022-12-03T18:37:53.138Z,41.42
2022-12-03T18:40:24.297Z,41.55
2022-12-03T18:42:52.453Z,42.39
2022-12-03T18:45:21.116Z,42.10
2022-12-03T18:47:49.375Z,41.64
2022-12-03T18:50:19.358Z,41.65
2022-12-03T18:52:47.457Z,40.29
2022-12-03T18:55:19.240Z,40.68
2022-12-03T18:57:47.421Z,40.99
2022-12-03T19:00:16.685Z,39.77
2022-12-03T19:05:36.184Z,39.58
2022-12-03T19:08:12.592Z,40.06
2022-12-03T19:10:42.287Z,39.59
2022-12-03T19:13:10.626Z,39.64
2022-12-03T19:15:39.051Z,40.37
2022-12-03T19:18:07.653Z,39.69
2022-12-03T19:20:41.178Z,38.82
2022-12-03T19:23:10.117Z,39.04
2022-12-03T19:25:38.631Z,39.04
2022-12-03T19:28:06.897Z,40.08
2022-12-03T19:30:35.430Z,39.41
2022-12-03T19:33:03.583Z,39.39
2022-12-03T19:35:32.745Z,39.19
2022-12-03T19:38:02.616Z,39.92
2022-12-03T19:40:32.191Z,39.30
2022-12-03T19:43:00.512Z,39.30
2022-12-03T19:45:28.977Z,38.78
2022-12-03T19:47:57.194Z,38.74
2022-12-03T19:50:25.780Z,38.40
2022-12-03T19:52:54.029Z,38.78
2022-12-03T19:55:24.038Z,39.16
2022-12-03T19:57:52.432Z,39.18
2022-12-03T20:00:21.240Z,38.65
2022-12-03T20:02:50.720Z,39.23
2022-12-03T20:05:19.321Z,39.07
2022-12-03T20:07:47.746Z,39.76
2022-12-03T20:10:16.488Z,40.73
2022-12-03T20:12:46.099Z,40.41
2022-12-03T20:15:14.961Z,40.37
2022-12-03T20:17:43.192Z,39.63
2022-12-03T20:20:12.286Z,38.89
2022-12-03T20:22:40.536Z,39.44
2022-12-03T20:25:09.621Z,39.23
2022-12-03T20:27:39.976Z,39.84
2022-12-03T20:30:11.428Z,39.40
2022-12-03T20:32:45.068Z,39.06
2022-12-03T20:35:13.821Z,38.79
2022-12-03T20:37:42.078Z,39.03
2022-12-03T20:40:11.394Z,38.90
2022-12-03T20:42:39.480Z,38.79
2022-12-03T20:45:10.644Z,38.96
2022-12-03T20:47:38.794Z,40.26
2022-12-03T20:50:08.503Z,39.40
2022-12-03T20:52:36.702Z,39.24
2022-12-03T20:55:05.680Z,39.00
2022-12-03T20:57:33.823Z,38.37
2022-12-03T21:00:02.280Z,39.30
2022-12-03T21:02:31.820Z,38.28
2022-12-03T21:05:00.392Z,38.54
2022-12-03T21:07:29.195Z,38.91
2022-12-03T21:09:57.804Z,38.48
2022-12-03T21:12:26.189Z,39.11
2022-12-03T21:14:54.798Z,39.09
2022-12-03T21:17:23.004Z,38.17
2022-12-03T21:19:53.313Z,37.83
2022-12-03T21:22:21.507Z,37.95
2022-12-03T21:24:49.951Z,37.90
2022-12-03T21:27:21.642Z,38.02
2022-12-03T21:29:50.559Z,38.69
2022-12-03T21:32:18.747Z,39.01
2022-12-03T21:34:47.301Z,39.02
2022-12-03T21:37:16.730Z,37.91
2022-12-03T21:39:45.301Z,38.25
2022-12-03T21:42:34.312Z,38.61
2022-12-03T21:45:01.972Z,38.86
2022-12-03T21:47:36.701Z,39.31
2022-12-03T21:50:07.160Z,39.44
2022-12-03T21:52:37.161Z,38.55
2022-12-03T21:55:06.408Z,39.26
2022-12-03T21:57:36.394Z,38.87
2022-12-03T22:00:06.097Z,40.08
2022-12-03T22:02:34.568Z,40.23
2022-12-03T22:05:03.154Z,39.25
2022-12-03T22:07:33.916Z,38.90
2022-12-03T22:10:04.228Z,38.92
2022-12-03T22:12:32.652Z,39.58
2022-12-03T22:15:00.996Z,40.22
2022-12-03T22:17:29.149Z,39.72
2022-12-03T22:19:57.680Z,39.94
2022-12-03T22:22:26.846Z,40.86
2022-12-03T22:24:55.264Z,39.85
2022-12-03T22:27:25.183Z,39.54
2022-12-03T22:29:53.996Z,40.52
2022-12-03T22:32:22.236Z,39.47
2022-12-03T22:34:50.769Z,40.55
2022-12-03T22:37:18.893Z,41.03
2022-12-03T22:39:47.333Z,40.41
2022-12-03T22:42:15.494Z,40.34
2022-12-03T22:44:45.311Z,39.36
2022-12-03T22:47:13.418Z,40.38
2022-12-03T22:49:41.819Z,40.16
2022-12-03T22:52:12.916Z,39.75
2022-12-03T22:54:41.218Z,39.95
2022-12-03T22:57:09.395Z,39.58
2022-12-03T22:59:37.842Z,41.00
2022-12-03T23:02:07.400Z,39.70
2022-12-03T23:04:36.085Z,40.09
2022-12-03T23:07:04.163Z,40.38
2022-12-03T23:09:32.492Z,39.90
2022-12-03T23:12:00.687Z,40.08
2022-12-03T23:14:29.457Z,40.89
2022-12-03T23:16:57.547Z,39.96
2022-12-03T23:19:27.238Z,40.02
2022-12-03T23:21:55.324Z,39.78
2022-12-03T23:24:23.628Z,39.74
2022-12-03T23:26:51.876Z,39.14
2022-12-03T23:29:20.371Z,40.89
2022-12-03T23:31:48.532Z,40.78
2022-12-03T23:34:17.018Z,41.25
2022-12-03T23:36:46.645Z,41.02
2022-12-03T23:39:15.040Z,41.56
2022-12-03T23:41:43.184Z,40.93
2022-12-03T23:44:11.711Z,40.69
2022-12-03T23:46:40.304Z,40.53
2022-12-03T23:49:09.064Z,39.30
2022-12-03T23:51:37.217Z,40.17
2022-12-03T23:54:07.311Z,40.32
2022-12-03T23:56:35.420Z,40.01
2022-12-03T23:59:03.768Z,39.02
